Time;durP1;ratioP1;P1;durP2;ratioP2;P2;SDS_P1;SDS_P2;PMS_P1;PMS_P2;Temp;Humidity;BMP_temperature;BMP_pressure;BME280_temperature;BME280_humidity;BME280_pressure;Samples;Min_cycle;Max_cycle;Signal;HPM_P1;HPM_P2
2021/12/03 00:00:12;;;;;;;366.29;336.61;;;;;;;19.03;49.51;99898.88;;;;-59
2021/12/03 00:03:11;;;;;;;336.37;309.85;;;;;;;19.01;49.44;99905.95;;;;-53
2021/12/03 00:06:13;;;;;;;367.08;337.33;;;;;;;19.00;49.56;99914.38;;;;-54
2021/12/03 00:09:11;;;;;;;340.19;313.11;;;;;;;18.97;49.53;99919.73;;;;-53
2021/12/03 00:12:11;;;;;;;333.89;307.47;;;;;;;18.96;49.54;99924.20;;;;-53
2021/12/03 00:15:12;;;;;;;330.72;304.63;;;;;;;18.94;49.49;99933.70;;;;-54
2021/12/03 00:18:11;;;;;;;369.61;339.62;;;;;;;18.92;49.58;99933.04;;;;-53
2021/12/03 00:21:12;;;;;;;379.82;348.93;;;;;;;18.90;49.50;99934.17;;;;-53
2021/12/03 00:24:11;;;;;;;399.93;366.87;;;;;;;18.88;49.52;99940.13;;;;-53
2021/12/03 00:27:11;;;;;;;397.57;364.75;;;;;;;18.87;49.50;99948.00;;;;-53
2021/12/03 00:30:11;;;;;;;362.58;333.31;;;;;;;18.86;49.56;99952.84;;;;-53
2021/12/03 00:33:12;;;;;;;372.15;341.94;;;;;;;18.84;49.49;99958.69;;;;-53
2021/12/03 00:36:11;;;;;;;424.30;388.99;;;;;;;18.83;49.55;99958.47;;;;-54
2021/12/03 00:39:11;;;;;;;409.31;375.41;;;;;;;18.80;49.57;99954.41;;;;-54
2021/12/03 00:42:15;;;;;;;433.99;397.71;;;;;;;18.79;49.58;99960.16;;;;-53
2021/12/03 00:45:11;;;;;;;414.80;380.42;;;;;;;18.78;49.56;99964.69;;;;-52
2021/12/03 00:48:12;;;;;;;362.15;332.95;;;;;;;18.76;49.62;99962.25;;;;-62
2021/12/03 00:51:12;;;;;;;399.39;366.43;;;;;;;18.75;49.62;99964.59;;;;-58
2021/12/03 00:54:13;;;;;;;411.32;377.18;;;;;;;18.73;49.59;99971.08;;;;-60
2021/12/03 00:57:11;;;;;;;424.52;389.13;;;;;;;18.72;49.68;99980.80;;;;-59
2021/12/03 01:00:11;;;;;;;412.75;378.40;;;;;;;18.70;49.64;99983.42;;;;-59
2021/12/03 01:03:12;;;;;;;429.69;393.64;;;;;;;18.69;49.62;99989.25;;;;-58
2021/12/03 01:06:11;;;;;;;401.93;368.65;;;;;;;18.68;49.64;99994.22;;;;-62
2021/12/03 01:09:11;;;;;;;431.45;395.38;;;;;;;18.66;49.67;99994.70;;;;-61
2021/12/03 01:12:11;;;;;;;397.65;364.95;;;;;;;18.64;49.67;99992.50;;;;-61
2021/12/03 01:15:11;;;;;;;425.17;389.55;;;;;;;18.63;49.69;99993.05;;;;-59
2021/12/03 01:18:12;;;;;;;385.41;353.75;;;;;;;18.63;49.69;99996.46;;;;-58
2021/12/03 01:21:11;;;;;;;422.95;387.52;;;;;;;18.61;49.67;100003.52;;;;-59
2021/12/03 01:24:11;;;;;;;366.65;336.87;;;;;;;18.59;49.72;100008.56;;;;-59
2021/12/03 01:27:11;;;;;;;375.83;345.21;;;;;;;18.59;49.65;100013.89;;;;-60
2021/12/03 01:30:11;;;;;;;395.71;363.08;;;;;;;18.57;49.71;100016.59;;;;-61
2021/12/03 01:33:11;;;;;;;418.97;383.88;;;;;;;18.57;49.70;100020.37;;;;-58
2021/12/03 01:36:11;;;;;;;372.41;341.98;;;;;;;18.55;49.60;100024.45;;;;-62
2021/12/03 01:39:12;;;;;;;354.21;325.75;;;;;;;18.54;49.71;100022.25;;;;-59
2021/12/03 01:42:11;;;;;;;321.33;296.05;;;;;;;18.53;49.67;100015.82;;;;-61
2021/12/03 01:45:11;;;;;;;447.52;409.83;;;;;;;18.51;49.66;100015.59;;;;-52
2021/12/03 01:48:11;;;;;;;454.82;416.39;;;;;;;18.50;49.72;100017.03;;;;-52
2021/12/03 01:51:11;;;;;;;489.65;448.19;;;;;;;18.48;49.69;100021.16;;;;-52
2021/12/03 01:54:11;;;;;;;480.55;440.09;;;;;;;18.47;49.75;100027.18;;;;-52
2021/12/03 01:57:11;;;;;;;452.45;414.43;;;;;;;18.46;49.70;100027.16;;;;-51
2021/12/03 02:00:11;;;;;;;509.95;466.56;;;;;;;18.44;49.70;100028.45;;;;-52
2021/12/03 02:03:13;;;;;;;400.52;367.52;;;;;;;18.44;49.70;100032.27;;;;-52
2021/12/03 02:06:11;;;;;;;384.40;353.07;;;;;;;18.42;49.72;100036.72;;;;-52
2021/12/03 02:09:12;;;;;;;505.22;462.34;;;;;;;18.42;49.73;100040.13;;;;-52
2021/12/03 02:12:11;;;;;;;466.27;426.88;;;;;;;18.41;49.76;100037.70;;;;-51
2021/12/03 02:15:11;;;;;;;496.43;454.35;;;;;;;18.40;49.65;100039.07;;;;-49
2021/12/03 02:18:11;;;;;;;496.07;454.16;;;;;;;18.39;49.67;100040.05;;;;-48
2021/12/03 02:21:11;;;;;;;484.93;443.77;;;;;;;18.38;49.71;100037.20;;;;-48
2021/12/03 02:24:12;;;;;;;508.95;465.60;;;;;;;18.37;49.75;100039.23;;;;-48
2021/12/03 02:27:11;;;;;;;514.69;470.83;;;;;;;18.35;49.64;100042.39;;;;-49
2021/12/03 02:30:11;;;;;;;483.39;442.59;;;;;;;18.33;49.72;100047.48;;;;-48
2021/12/03 02:33:11;;;;;;;484.81;443.67;;;;;;;18.32;49.70;100042.03;;;;-49
2021/12/03 02:36:11;;;;;;;516.66;472.53;;;;;;;18.32;49.76;100045.77;;;;-49
2021/12/03 02:39:11;;;;;;;538.67;492.69;;;;;;;18.31;49.79;100050.72;;;;-48
2021/12/03 02:42:11;;;;;;;583.96;533.81;;;;;;;18.29;49.68;100057.52;;;;-49
2021/12/03 02:45:11;;;;;;;598.68;547.24;;;;;;;18.28;49.65;100060.42;;;;-49
2021/12/03 02:48:11;;;;;;;597.39;546.11;;;;;;;18.27;49.68;100067.00;;;;-49
2021/12/03 02:51:11;;;;;;;567.32;518.54;;;;;;;18.26;49.68;100067.63;;;;-49
2021/12/03 02:54:11;;;;;;;546.83;500.17;;;;;;;18.24;49.62;100077.11;;;;-49
2021/12/03 02:57:11;;;;;;;514.53;470.75;;;;;;;18.23;49.72;100079.55;;;;-48
2021/12/03 03:00:11;;;;;;;506.25;463.25;;;;;;;18.23;49.74;100082.23;;;;-49
2021/12/03 03:03:11;;;;;;;531.35;485.95;;;;;;;18.22;49.72;100084.64;;;;-49
2021/12/03 03:06:11;;;;;;;557.33;509.65;;;;;;;18.21;49.72;100087.24;;;;-49
2021/12/03 03:09:12;;;;;;;567.16;518.49;;;;;;;18.19;49.71;100087.56;;;;-49
2021/12/03 03:12:11;;;;;;;580.75;530.83;;;;;;;18.19;49.67;100090.31;;;;-49
2021/12/03 03:15:12;;;;;;;531.41;485.85;;;;;;;18.17;49.66;100096.63;;;;-49
2021/12/03 03:18:11;;;;;;;487.36;445.99;;;;;;;18.17;49.78;100097.60;;;;-49
2021/12/03 03:21:11;;;;;;;594.59;543.75;;;;;;;18.16;49.74;100097.53;;;;-48
2021/12/03 03:24:11;;;;;;;541.35;494.77;;;;;;;18.15;49.80;100105.37;;;;-49
2021/12/03 03:27:11;;;;;;;584.97;534.64;;;;;;;18.14;49.69;100103.11;;;;-48
2021/12/03 03:30:12;;;;;;;606.32;554.31;;;;;;;18.14;49.76;100110.66;;;;-48
2021/12/03 03:33:11;;;;;;;579.27;529.42;;;;;;;18.13;49.71;100114.52;;;;-48
2021/12/03 03:36:11;;;;;;;601.94;550.14;;;;;;;18.12;49.79;100118.83;;;;-49
2021/12/03 03:39:11;;;;;;;568.65;519.71;;;;;;;18.11;49.81;100119.78;;;;-48
2021/12/03 03:42:11;;;;;;;551.53;504.17;;;;;;;18.11;49.72;100123.19;;;;-49
2021/12/03 03:45:13;;;;;;;551.76;504.48;;;;;;;18.08;49.69;100129.75;;;;-49
2021/12/03 03:48:11;;;;;;;550.64;503.30;;;;;;;18.08;49.66;100136.07;;;;-52
2021/12/03 03:51:11;;;;;;;570.97;521.80;;;;;;;18.07;49.66;100142.94;;;;-49
2021/12/03 03:54:11;;;;;;;540.58;494.31;;;;;;;18.05;49.67;100137.92;;;;-49
2021/12/03 03:57:11;;;;;;;568.29;519.08;;;;;;;18.05;49.70;100141.95;;;;-49
2021/12/03 04:00:11;;;;;;;581.59;531.62;;;;;;;18.04;49.68;100138.39;;;;-49
2021/12/03 04:03:11;;;;;;;573.77;524.35;;;;;;;18.03;49.64;100136.02;;;;-48
2021/12/03 04:06:11;;;;;;;540.43;493.93;;;;;;;18.02;49.70;100138.55;;;;-49
2021/12/03 04:09:11;;;;;;;583.12;532.74;;;;;;;18.02;49.75;100144.95;;;;-49
2021/12/03 04:12:11;;;;;;;563.98;515.31;;;;;;;18.01;49.71;100144.28;;;;-52
2021/12/03 04:15:11;;;;;;;573.79;524.27;;;;;;;18.00;49.76;100149.14;;;;-53
2021/12/03 04:18:11;;;;;;;540.18;493.75;;;;;;;17.98;49.70;100150.42;;;;-53
2021/12/03 04:21:11;;;;;;;567.27;518.30;;;;;;;17.97;49.69;100149.05;;;;-52
2021/12/03 04:24:11;;;;;;;555.01;507.13;;;;;;;17.96;49.64;100149.11;;;;-52
2021/12/03 04:27:11;;;;;;;532.79;486.82;;;;;;;17.96;49.68;100147.66;;;;-53
2021/12/03 04:30:11;;;;;;;551.17;503.36;;;;;;;17.96;49.62;100153.25;;;;-52
2021/12/03 04:33:11;;;;;;;541.67;495.03;;;;;;;17.95;49.64;100155.25;;;;-53
2021/12/03 04:36:11;;;;;;;531.03;485.16;;;;;;;17.94;49.68;100158.27;;;;-53
2021/12/03 04:39:12;;;;;;;581.92;531.45;;;;;;;17.93;49.65;100161.59;;;;-53
2021/12/03 04:42:11;;;;;;;548.90;501.70;;;;;;;17.91;49.63;100168.70;;;;-53
2021/12/03 04:45:11;;;;;;;569.91;520.53;;;;;;;17.91;49.71;100171.70;;;;-53
2021/12/03 04:48:11;;;;;;;590.16;539.01;;;;;;;17.91;49.74;100175.41;;;;-53
2021/12/03 04:51:11;;;;;;;606.08;553.69;;;;;;;17.89;49.65;100175.98;;;;-53
2021/12/03 04:54:11;;;;;;;559.55;511.02;;;;;;;17.89;49.72;100178.91;;;;-53
2021/12/03 04:57:11;;;;;;;556.39;508.17;;;;;;;17.88;49.71;100173.13;;;;-53
2021/12/03 05:00:11;;;;;;;592.84;541.61;;;;;;;17.87;49.63;100173.05;;;;-53
2021/12/03 05:03:11;;;;;;;540.41;493.75;;;;;;;17.86;49.65;100179.91;;;;-53
2021/12/03 05:06:15;;;;;;;591.02;539.51;;;;;;;17.85;49.62;100188.43;;;;-53
2021/12/03 05:09:11;;;;;;;605.50;552.87;;;;;;;17.86;49.75;100190.78;;;;-53
2021/12/03 05:12:12;;;;;;;582.97;532.18;;;;;;;17.84;49.58;100194.16;;;;-53
2021/12/03 05:15:11;;;;;;;584.93;533.96;;;;;;;17.84;49.61;100194.25;;;;-53
2021/12/03 05:18:11;;;;;;;598.90;546.89;;;;;;;17.83;49.72;100197.90;;;;-53
2021/12/03 05:21:11;;;;;;;599.49;547.33;;;;;;;17.83;49.63;100201.79;;;;-49
2021/12/03 05:24:11;;;;;;;593.64;542.03;;;;;;;17.81;49.75;100200.69;;;;-49
2021/12/03 05:27:11;;;;;;;607.64;554.75;;;;;;;17.80;49.62;100207.22;;;;-49
2021/12/03 05:30:11;;;;;;;613.89;560.72;;;;;;;17.81;49.73;100208.71;;;;-49
2021/12/03 05:33:11;;;;;;;603.24;550.73;;;;;;;17.72;46.35;100214.28;;;;-52
2021/12/03 05:36:11;;;;;;;681.45;621.73;;;;;;;17.27;42.85;100214.40;;;;-52
2021/12/03 05:39:11;;;;;;;654.21;595.50;;;;;;;16.99;42.06;100212.34;;;;-54
2021/12/03 05:42:11;;;;;;;625.45;568.81;;;;;;;16.80;41.43;100210.22;;;;-54
2021/12/03 05:45:11;;;;;;;644.94;586.27;;;;;;;16.54;40.94;100210.03;;;;-53
2021/12/03 05:48:13;;;;;;;632.85;574.85;;;;;;;16.24;40.29;100220.08;;;;-53
2021/12/03 05:51:12;;;;;;;596.77;540.04;;;;;;;15.87;40.10;100221.73;;;;-54
2021/12/03 05:54:36;;;;;;;608.33;550.77;;;;;;;15.87;40.84;100221.64;;;;-53
2021/12/03 05:57:11;;;;;;;615.79;557.73;;;;;;;16.21;42.34;100221.91;;;;-48
2021/12/03 06:00:11;;;;;;;631.83;573.37;;;;;;;16.43;43.83;100230.06;;;;-51
2021/12/03 06:03:11;;;;;;;641.01;582.48;;;;;;;16.60;44.42;100236.25;;;;-51
2021/12/03 06:06:11;;;;;;;647.92;588.95;;;;;;;16.75;44.65;100224.48;;;;-52
2021/12/03 06:09:11;;;;;;;658.97;600.27;;;;;;;16.87;44.86;100230.48;;;;-51
2021/12/03 06:12:11;;;;;;;668.06;609.34;;;;;;;16.97;45.13;100229.31;;;;-52
2021/12/03 06:15:11;;;;;;;675.67;616.37;;;;;;;17.07;45.32;100230.98;;;;-51
2021/12/03 06:18:11;;;;;;;673.41;614.47;;;;;;;17.15;45.49;100232.88;;;;-52
2021/12/03 06:21:11;;;;;;;675.03;616.03;;;;;;;17.24;45.66;100230.46;;;;-52
2021/12/03 06:24:11;;;;;;;680.08;620.69;;;;;;;17.31;45.96;100230.64;;;;-52
2021/12/03 06:27:11;;;;;;;683.79;624.51;;;;;;;17.39;45.99;100235.44;;;;-51
2021/12/03 06:30:11;;;;;;;679.65;620.69;;;;;;;17.46;46.18;100237.28;;;;-52
2021/12/03 06:33:11;;;;;;;665.51;607.79;;;;;;;17.51;46.43;100238.45;;;;-52
2021/12/03 06:36:11;;;;;;;631.88;576.85;;;;;;;17.56;46.50;100247.92;;;;-52
2021/12/03 06:39:11;;;;;;;627.53;572.99;;;;;;;17.59;46.58;100250.70;;;;-52
2021/12/03 06:42:11;;;;;;;632.17;577.08;;;;;;;17.63;46.70;100262.73;;;;-52
2021/12/03 06:45:11;;;;;;;619.65;565.97;;;;;;;17.65;46.86;100263.98;;;;-52
2021/12/03 06:48:11;;;;;;;649.65;593.48;;;;;;;17.68;46.92;100266.29;;;;-52
2021/12/03 06:51:11;;;;;;;644.49;588.73;;;;;;;17.71;46.86;100262.02;;;;-52
2021/12/03 06:54:12;;;;;;;631.40;576.29;;;;;;;17.73;47.02;100262.12;;;;-52
2021/12/03 06:57:11;;;;;;;656.17;599.57;;;;;;;17.74;47.07;100267.63;;;;-52
2021/12/03 07:00:11;;;;;;;660.29;603.31;;;;;;;17.76;47.18;100277.00;;;;-52
2021/12/03 07:03:11;;;;;;;651.62;595.28;;;;;;;17.77;47.18;100282.34;;;;-52
2021/12/03 07:06:11;;;;;;;627.25;572.73;;;;;;;17.78;47.22;100293.77;;;;-52
2021/12/03 07:09:11;;;;;;;650.98;594.80;;;;;;;17.79;47.25;100299.88;;;;-52
2021/12/03 07:12:13;;;;;;;650.76;594.51;;;;;;;17.79;47.25;100297.03;;;;-52
2021/12/03 07:15:11;;;;;;;635.99;580.76;;;;;;;17.81;47.33;100302.65;;;;-53
2021/12/03 07:18:11;;;;;;;657.20;600.67;;;;;;;17.80;47.46;100300.44;;;;-52
2021/12/03 07:21:11;;;;;;;624.17;569.99;;;;;;;17.82;47.52;100299.08;;;;-52
2021/12/03 07:24:11;;;;;;;638.69;583.25;;;;;;;17.82;47.43;100303.86;;;;-52
2021/12/03 07:27:11;;;;;;;652.53;596.17;;;;;;;17.82;47.53;100303.30;;;;-52
2021/12/03 07:30:11;;;;;;;660.13;603.25;;;;;;;17.82;47.62;100302.73;;;;-52
2021/12/03 07:33:14;;;;;;;683.91;625.34;;;;;;;17.82;47.68;100301.84;;;;-52
2021/12/03 07:36:11;;;;;;;685.61;626.71;;;;;;;17.83;47.80;100297.19;;;;-56
2021/12/03 07:39:11;;;;;;;691.98;632.81;;;;;;;17.84;47.66;100302.38;;;;-56
2021/12/03 07:42:11;;;;;;;682.19;623.45;;;;;;;17.83;47.75;100309.03;;;;-57
2021/12/03 07:45:13;;;;;;;682.18;623.77;;;;;;;17.83;47.81;100312.27;;;;-57
2021/12/03 07:48:11;;;;;;;682.87;624.33;;;;;;;17.83;47.73;100313.00;;;;-55
2021/12/03 07:51:11;;;;;;;676.63;618.94;;;;;;;17.83;47.81;100318.84;;;;-56
2021/12/03 07:54:11;;;;;;;695.52;636.03;;;;;;;17.83;47.93;100319.81;;;;-56
2021/12/03 07:57:11;;;;;;;692.03;633.01;;;;;;;17.83;47.85;100320.62;;;;-57
2021/12/03 08:00:11;;;;;;;695.13;635.25;;;;;;;17.83;47.95;100324.19;;;;-57
2021/12/03 08:03:11;;;;;;;693.64;633.99;;;;;;;17.83;48.00;100324.27;;;;-57
2021/12/03 08:06:13;;;;;;;691.19;632.02;;;;;;;17.82;48.00;100328.42;;;;-57
2021/12/03 08:09:11;;;;;;;695.90;636.24;;;;;;;17.83;47.99;100331.48;;;;-57
2021/12/03 08:12:11;;;;;;;697.41;637.33;;;;;;;17.82;47.98;100336.20;;;;-56
2021/12/03 08:15:11;;;;;;;690.65;631.61;;;;;;;17.82;47.99;100343.42;;;;-57
2021/12/03 08:18:11;;;;;;;692.07;632.84;;;;;;;17.81;47.98;100344.39;;;;-57
2021/12/03 08:21:11;;;;;;;691.51;632.15;;;;;;;17.82;47.96;100344.39;;;;-57
2021/12/03 08:24:11;;;;;;;692.35;632.57;;;;;;;17.82;48.05;100349.42;;;;-57
2021/12/03 08:27:11;;;;;;;693.65;634.00;;;;;;;17.81;48.02;100349.83;;;;-57
2021/12/03 08:30:16;;;;;;;696.50;636.55;;;;;;;17.80;48.02;100348.75;;;;-57
2021/12/03 08:33:11;;;;;;;697.43;637.33;;;;;;;17.80;47.94;100354.50;;;;-56
2021/12/03 08:36:11;;;;;;;691.32;631.73;;;;;;;17.80;47.96;100354.34;;;;-57
2021/12/03 08:39:11;;;;;;;695.96;636.18;;;;;;;17.79;47.96;100355.80;;;;-56
2021/12/03 08:42:12;;;;;;;680.93;622.23;;;;;;;17.79;47.95;100359.13;;;;-57
2021/12/03 08:45:11;;;;;;;691.67;631.97;;;;;;;17.79;48.00;100359.05;;;;-56
2021/12/03 08:48:11;;;;;;;693.97;634.15;;;;;;;17.77;47.93;100362.09;;;;-57
2021/12/03 08:51:23;;;;;;;692.60;632.86;;;;;;;17.78;48.03;100362.02;;;;-57
2021/12/03 08:57:11;;;;;;;694.65;634.79;;;;;;;17.77;47.94;100351.08;;;;-57
2021/12/03 09:00:12;;;;;;;689.72;629.95;;;;;;;17.77;48.02;100350.51;;;;-56
2021/12/03 09:03:11;;;;;;;689.85;630.49;;;;;;;17.76;47.94;100354.48;;;;-57
2021/12/03 09:06:11;;;;;;;689.07;629.90;;;;;;;17.76;48.01;100350.48;;;;-57
2021/12/03 09:09:11;;;;;;;693.19;633.73;;;;;;;17.75;47.91;100348.86;;;;-57
2021/12/03 09:12:11;;;;;;;689.95;630.43;;;;;;;17.75;47.95;100353.81;;;;-57
2021/12/03 09:15:13;;;;;;;686.23;627.17;;;;;;;17.75;47.94;100353.48;;;;-57
2021/12/03 09:18:29;;;;;;;688.74;629.44;;;;;;;17.73;47.90;100351.35;;;;-57
2021/12/03 09:21:14;;;;;;;614.58;560.85;;;;;;;17.73;48.00;100357.27;;;;-57
2021/12/03 09:24:16;;;;;;;616.73;562.96;;;;;;;17.72;47.96;100354.32;;;;-57
2021/12/03 09:27:11;;;;;;;622.79;568.53;;;;;;;17.72;47.99;100359.03;;;;-57
2021/12/03 09:30:12;;;;;;;633.17;578.03;;;;;;;17.71;47.98;100357.48;;;;-56
2021/12/03 09:33:14;;;;;;;650.15;593.78;;;;;;;17.71;47.96;100352.55;;;;-57
2021/12/03 09:36:11;;;;;;;661.09;603.99;;;;;;;17.70;47.96;100344.20;;;;-56
2021/12/03 09:39:15;;;;;;;647.81;591.77;;;;;;;17.70;47.98;100336.09;;;;-52
2021/12/03 09:42:12;;;;;;;678.49;619.87;;;;;;;17.70;48.04;100325.80;;;;-57
2021/12/03 09:45:11;;;;;;;685.73;626.58;;;;;;;17.70;47.92;100334.39;;;;-57
2021/12/03 09:48:18;;;;;;;633.86;578.91;;;;;;;17.70;47.90;100343.62;;;;-56
2021/12/03 09:51:11;;;;;;;659.33;602.24;;;;;;;17.69;47.88;100340.84;;;;-53
2021/12/03 09:54:35;;;;;;;648.07;591.82;;;;;;;17.69;47.93;100342.63;;;;-57
2021/12/03 09:57:13;;;;;;;665.12;607.63;;;;;;;17.68;47.85;100350.58;;;;-57
2021/12/03 10:00:21;;;;;;;665.35;607.80;;;;;;;17.68;47.83;100339.15;;;;-57
2021/12/03 10:07:33;;;;;;;682.78;623.39;;;;;;;17.68;47.95;100334.85;;;;-56
2021/12/03 10:10:09;;;;;;;688.41;629.07;;;;;;;17.68;47.94;100334.91;;;;-57
2021/12/03 10:13:16;;;;;;;669.66;610.71;;;;;;;17.66;47.89;100332.23;;;;-53
2021/12/03 10:16:19;;;;;;;673.11;614.07;;;;;;;17.66;47.88;100328.83;;;;-53
2021/12/03 10:19:25;;;;;;;682.21;622.75;;;;;;;17.66;47.98;100318.67;;;;-57
2021/12/03 10:22:26;;;;;;;680.86;621.82;;;;;;;17.66;47.92;100316.52;;;;-56
2021/12/03 10:29:54;;;;;;;665.69;606.90;;;;;;;17.66;47.95;100316.89;;;;-56
2021/12/03 10:33:31;;;;;;;667.05;608.19;;;;;;;17.65;47.99;100307.33;;;;-57
2021/12/03 10:39:21;;;;;;;670.31;611.89;;;;;;;17.64;47.97;100293.69;;;;-56
2021/12/03 10:42:21;;;;;;;674.15;615.53;;;;;;;17.64;48.00;100289.42;;;;-55
2021/12/03 10:45:25;;;;;;;676.39;617.31;;;;;;;17.65;48.22;100287.39;;;;-48
2021/12/03 10:48:29;;;;;;;677.99;618.93;;;;;;;17.68;48.36;100288.83;;;;-49
2021/12/03 10:51:16;;;;;;;684.03;624.85;;;;;;;17.72;48.46;100293.86;;;;-50
2021/12/03 10:54:19;;;;;;;680.13;621.52;;;;;;;17.76;48.51;100285.88;;;;-51
2021/12/03 10:57:22;;;;;;;679.01;620.54;;;;;;;17.80;48.75;100284.06;;;;-46
2021/12/03 11:00:41;;;;;;;683.21;624.35;;;;;;;17.87;48.90;100285.16;;;;-51
2021/12/03 11:04:39;;;;;;;688.09;629.20;;;;;;;17.93;48.86;100277.59;;;;-53
2021/12/03 11:07:34;;;;;;;684.54;625.46;;;;;;;18.02;48.86;100276.55;;;;-53
2021/12/03 11:13:29;;;;;;;701.37;641.51;;;;;;;18.14;48.99;100266.92;;;;-47
2021/12/03 11:19:57;;;;;;;714.69;654.09;;;;;;;18.25;49.00;100252.98;;;;-54
2021/12/03 11:26:18;;;;;;;719.66;658.86;;;;;;;18.37;49.01;100259.32;;;;-50
2021/12/03 11:28:54;;;;;;;716.17;655.61;;;;;;;18.42;48.88;100257.72;;;;-58
2021/12/03 11:33:41;;;;;;;718.47;657.86;;;;;;;18.46;48.91;100251.42;;;;-49
2021/12/03 11:38:37;;;;;;;728.89;667.69;;;;;;;18.58;49.08;100234.39;;;;-52
2021/12/03 12:08:27;;;;;;;751.19;688.51;;;;;;;18.88;48.29;100200.72;;;;-49
2021/12/03 12:17:33;;;;;;;738.27;676.72;;;;;;;18.92;48.38;100190.44;;;;-62
2021/12/03 12:21:07;;;;;;;726.75;665.61;;;;;;;18.94;48.41;100177.78;;;;-49
2021/12/03 12:23:54;;;;;;;747.48;685.63;;;;;;;18.96;48.38;100182.48;;;;-52
2021/12/03 12:26:38;;;;;;;743.79;682.51;;;;;;;18.98;48.38;100172.19;;;;-52
2021/12/03 12:30:11;;;;;;;747.36;685.81;;;;;;;19.00;48.43;100169.44;;;;-51
2021/12/03 12:35:42;;;;;;;741.26;680.33;;;;;;;19.03;48.40;100171.08;;;;-56
2021/12/03 13:02:04;;;;;;;699.20;640.27;;;;;;;19.22;48.10;100153.84;;;;-58
2021/12/03 13:33:08;;;;;;;733.29;672.01;;;;;;;19.44;47.37;100120.33;;;;-53
2021/12/03 13:56:48;;;;;;;742.75;681.33;;;;;;;19.57;47.88;100113.18;;;;-55
2021/12/03 14:02:39;;;;;;;752.62;690.98;;;;;;;19.59;47.95;100110.98;;;;-57
2021/12/03 14:05:31;;;;;;;755.47;693.35;;;;;;;19.62;47.92;100105.95;;;;-57
2021/12/03 14:37:09;;;;;;;766.95;704.06;;;;;;;19.86;47.80;100068.70;;;;-53
2021/12/03 14:40:19;;;;;;;756.73;694.50;;;;;;;19.88;47.79;100061.81;;;;-59
2021/12/03 14:46:27;;;;;;;768.23;705.35;;;;;;;19.91;47.98;100063.74;;;;-51
2021/12/03 14:49:36;;;;;;;773.42;710.59;;;;;;;19.94;48.04;100062.50;;;;-49
2021/12/03 14:52:17;;;;;;;779.65;716.46;;;;;;;19.96;48.10;100066.00;;;;-50
2021/12/03 14:55:11;;;;;;;781.75;718.56;;;;;;;19.98;48.17;100069.08;;;;-51
2021/12/03 14:58:13;;;;;;;788.36;724.90;;;;;;;20.01;48.10;100061.13;;;;-50
2021/12/03 15:01:18;;;;;;;791.23;727.39;;;;;;;20.05;48.12;100059.82;;;;-55
2021/12/03 15:04:28;;;;;;;795.95;732.08;;;;;;;20.07;48.18;100059.56;;;;-55
2021/12/03 15:07:15;;;;;;;780.79;717.69;;;;;;;20.09;48.09;100047.77;;;;-55
2021/12/03 15:10:16;;;;;;;776.57;713.14;;;;;;;20.08;47.02;100049.70;;;;-57
2021/12/03 15:13:32;;;;;;;776.61;713.12;;;;;;;20.11;47.55;100044.91;;;;-52
2021/12/03 15:17:20;;;;;;;779.19;715.55;;;;;;;20.12;47.67;100033.67;;;;-56
2021/12/03 15:19:22;;;;;;;780.13;716.65;;;;;;;20.14;47.76;100037.23;;;;-54
2021/12/03 15:23:16;;;;;;;778.46;714.41;;;;;;;20.14;47.60;100038.39;;;;-58
2021/12/03 15:26:21;;;;;;;768.20;705.24;;;;;;;20.15;47.58;100038.48;;;;-59
2021/12/03 15:29:37;;;;;;;774.97;712.14;;;;;;;20.16;47.65;100036.58;;;;-58
2021/12/03 15:32:13;;;;;;;781.71;718.54;;;;;;;20.17;47.69;100031.48;;;;-57
2021/12/03 15:35:14;;;;;;;781.99;719.00;;;;;;;20.18;47.74;100029.17;;;;-57
2021/12/03 15:38:41;;;;;;;778.36;715.27;;;;;;;20.19;47.72;100018.67;;;;-59
2021/12/03 15:54:51;;;;;;;769.92;707.34;;;;;;;20.32;48.01;100015.71;;;;-51
2021/12/03 15:57:19;;;;;;;776.47;713.73;;;;;;;20.36;47.94;100007.94;;;;-48
2021/12/03 16:06:40;;;;;;;802.71;738.45;;;;;;;20.41;47.90;100002.87;;;;-59
2021/12/03 16:09:21;;;;;;;792.12;728.59;;;;;;;20.42;47.84;99998.91;;;;-60
2021/12/03 16:12:18;;;;;;;793.66;729.92;;;;;;;20.45;48.12;99997.49;;;;-59
2021/12/03 16:15:25;;;;;;;787.73;724.37;;;;;;;20.47;48.04;99997.31;;;;-46
2021/12/03 16:27:02;;;;;;;769.26;706.85;;;;;;;20.53;47.96;99991.92;;;;-49
2021/12/03 16:44:27;;;;;;;779.63;716.45;;;;;;;20.57;47.63;99970.97;;;;-52
2021/12/03 16:47:24;;;;;;;786.15;722.65;;;;;;;20.57;47.60;99964.62;;;;-51
2021/12/03 17:31:17;;;;;;;826.60;761.01;;;;;;;20.91;47.53;99923.12;;;;-52
2021/12/03 17:49:49;;;;;;;848.93;782.05;;;;;;;20.92;47.81;99904.06;;;;-52
2021/12/03 17:56:31;;;;;;;864.14;796.62;;;;;;;20.94;47.73;99895.23;;;;-58
2021/12/03 17:58:47;;;;;;;864.72;797.57;;;;;;;20.89;47.51;99891.77;;;;-57
2021/12/03 18:01:53;;;;;;;865.68;798.54;;;;;;;20.86;47.49;99890.51;;;;-57
2021/12/03 18:05:20;;;;;;;865.19;798.09;;;;;;;20.84;47.56;99878.63;;;;-57
2021/12/03 18:07:54;;;;;;;855.77;788.92;;;;;;;20.82;47.61;99873.94;;;;-52
2021/12/03 18:10:59;;;;;;;847.67;781.65;;;;;;;20.81;47.61;99881.17;;;;-58
2021/12/03 18:15:55;;;;;;;846.10;780.04;;;;;;;20.79;47.63;99874.19;;;;-58
2021/12/03 18:47:00;;;;;;;807.29;742.68;;;;;;;20.67;47.77;99842.39;;;;-52
2021/12/03 18:52:52;;;;;;;809.91;745.11;;;;;;;20.65;47.78;99824.16;;;;-57
2021/12/03 18:55:48;;;;;;;796.69;732.55;;;;;;;20.65;47.76;99809.92;;;;-57
2021/12/03 18:58:46;;;;;;;780.11;716.79;;;;;;;20.64;47.72;99803.64;;;;-52
2021/12/03 19:01:45;;;;;;;667.40;612.10;;;;;;;20.63;47.79;99808.45;;;;-52
2021/12/03 19:04:51;;;;;;;720.03;660.72;;;;;;;20.61;47.78;99800.75;;;;-58
2021/12/03 19:07:49;;;;;;;728.63;668.67;;;;;;;20.61;47.76;99795.14;;;;-58
2021/12/03 19:10:46;;;;;;;753.92;692.14;;;;;;;20.59;47.67;99780.00;;;;-54
2021/12/03 19:13:46;;;;;;;755.23;693.54;;;;;;;20.61;47.94;99783.16;;;;-60
2021/12/03 19:16:45;;;;;;;768.12;705.27;;;;;;;20.63;48.06;99780.30;;;;-60
2021/12/03 19:19:47;;;;;;;803.49;738.76;;;;;;;20.64;47.98;99776.38;;;;-60
2021/12/03 19:22:45;;;;;;;803.51;738.74;;;;;;;20.65;48.06;99764.16;;;;-60
2021/12/03 19:25:45;;;;;;;688.36;631.33;;;;;;;20.67;48.00;99755.52;;;;-59
2021/12/03 19:28:45;;;;;;;728.41;668.35;;;;;;;20.68;48.09;99746.46;;;;-62
2021/12/03 19:31:47;;;;;;;684.01;627.43;;;;;;;20.69;47.98;99736.45;;;;-58
2021/12/03 19:34:45;;;;;;;665.85;610.43;;;;;;;20.67;47.86;99736.06;;;;-52
2021/12/03 19:37:49;;;;;;;678.32;621.88;;;;;;;20.66;47.93;99736.06;;;;-51
2021/12/03 19:40:52;;;;;;;697.90;640.14;;;;;;;20.64;47.94;99733.30;;;;-58
2021/12/03 19:43:48;;;;;;;688.05;631.05;;;;;;;20.63;47.87;99724.63;;;;-59
2021/12/03 19:46:47;;;;;;;784.61;721.12;;;;;;;20.61;48.04;99714.30;;;;-58
2021/12/03 19:49:51;;;;;;;729.48;669.37;;;;;;;20.60;47.84;99693.45;;;;-51
2021/12/03 19:52:48;;;;;;;777.13;713.94;;;;;;;20.59;47.96;99686.81;;;;-51
2021/12/03 19:55:46;;;;;;;744.98;683.55;;;;;;;20.60;47.96;99681.09;;;;-50
2021/12/03 19:58:45;;;;;;;715.58;656.32;;;;;;;20.62;48.08;99685.38;;;;-53
2021/12/03 20:01:45;;;;;;;747.82;686.45;;;;;;;20.61;48.17;99690.70;;;;-56
2021/12/03 20:04:45;;;;;;;643.86;590.01;;;;;;;20.61;48.21;99695.41;;;;-51
2021/12/03 20:07:45;;;;;;;627.74;575.05;;;;;;;20.61;48.36;99687.34;;;;-55
2021/12/03 20:10:48;;;;;;;650.03;595.63;;;;;;;20.60;48.36;99682.55;;;;-57
2021/12/03 20:13:48;;;;;;;527.61;483.56;;;;;;;20.58;48.23;99676.55;;;;-56
2021/12/03 20:16:51;;;;;;;500.41;458.85;;;;;;;20.57;48.30;99681.33;;;;-54
2021/12/03 20:19:49;;;;;;;459.87;421.99;;;;;;;20.55;48.35;99678.42;;;;-53
2021/12/03 20:22:50;;;;;;;548.80;503.09;;;;;;;20.54;48.41;99676.80;;;;-51
2021/12/03 20:28:50;;;;;;;611.23;559.92;;;;;;;20.50;48.39;99659.13;;;;-50
2021/12/03 20:31:57;;;;;;;572.07;524.28;;;;;;;20.49;48.38;99656.85;;;;-45
2021/12/03 20:34:56;;;;;;;561.49;514.53;;;;;;;20.46;48.37;99652.08;;;;-47
2021/12/03 20:37:47;;;;;;;557.50;510.77;;;;;;;20.43;48.30;99643.14;;;;-47
2021/12/03 20:40:51;;;;;;;524.16;480.72;;;;;;;20.42;48.32;99637.72;;;;-51
2021/12/03 20:43:58;;;;;;;532.46;488.19;;;;;;;20.40;48.34;99627.22;;;;-49
2021/12/03 20:46:53;;;;;;;552.34;506.15;;;;;;;20.37;48.28;99624.73;;;;-47
2021/12/03 20:50:00;;;;;;;517.54;474.56;;;;;;;20.36;48.27;99623.47;;;;-47
2021/12/03 20:52:52;;;;;;;497.97;456.83;;;;;;;20.35;48.35;99625.99;;;;-48
2021/12/03 21:08:48;;;;;;;652.09;597.59;;;;;;;20.24;48.46;99616.42;;;;-54
2021/12/03 21:11:48;;;;;;;670.73;614.71;;;;;;;20.22;48.46;99614.98;;;;-58
2021/12/03 21:14:52;;;;;;;631.71;578.67;;;;;;;20.20;48.52;99615.89;;;;-52